Terminal Aerodrome Forecast
Issued by NWS

Home | Current Version | Previous Version | Text Only | Print | Product List | Glossary On
Versions: 1 2 3 4 5 6 7 8 9 10 11 12 13 14 15 16
000
FTUS46 KMTR 222300
TAFSJC
TAF
KSJC 222340Z 2300/2324 30015G22KT P6SM FEW035 BKN060
     FM230400 31008KT P6SM BKN015 BKN030
     FM231000 27008KT P6SM OVC014
     FM231800 30014KT P6SM FEW030 BKN040=

USA.gov is the U.S. government's official web portal to all federal, state and local government web resources and services.